createdAt,value
2022-12-23T00:00:13.231Z,21.3300
2022-12-23T00:01:15.620Z,21.3300
2022-12-23T00:02:15.921Z,21.3200
2022-12-23T00:03:18.435Z,21.3200
2022-12-23T00:04:20.635Z,21.3100
2022-12-23T00:05:20.825Z,21.3000
2022-12-23T00:06:23.199Z,21.3000
2022-12-23T00:07:25.560Z,21.2900
2022-12-23T00:08:25.805Z,21.3000
2022-12-23T00:09:28.141Z,21.3000
2022-12-23T00:10:30.492Z,21.3000
2022-12-23T00:11:30.705Z,21.3000
2022-12-23T00:12:33.088Z,21.3000
2022-12-23T00:13:35.470Z,21.2900
2022-12-23T00:14:35.641Z,21.2900
2022-12-23T00:15:37.935Z,21.3000
2022-12-23T00:16:40.323Z,21.2900
2022-12-23T00:17:42.613Z,21.3000
2022-12-23T00:18:44.996Z,21.3000
2022-12-23T00:19:47.317Z,21.3000
2022-12-23T00:20:47.534Z,21.2900
2022-12-23T00:21:49.834Z,21.2900
2022-12-23T00:22:52.193Z,21.3000
2022-12-23T00:23:54.649Z,21.2900
2022-12-23T00:24:56.893Z,21.2800
2022-12-23T00:25:59.250Z,21.2800
2022-12-23T00:26:59.455Z,21.2800
2022-12-23T00:28:01.817Z,21.2900
2022-12-23T00:29:04.241Z,21.2800
2022-12-23T00:30:04.461Z,21.2900
2022-12-23T00:31:06.865Z,21.2800
2022-12-23T00:32:09.320Z,21.2900
2022-12-23T00:33:09.452Z,21.2900
2022-12-23T00:34:11.860Z,21.2800
2022-12-23T00:35:14.097Z,21.3100
2022-12-23T00:36:14.405Z,21.3100
2022-12-23T00:37:16.609Z,21.3200
2022-12-23T00:38:18.970Z,21.3200
2022-12-23T00:39:21.352Z,21.3300
2022-12-23T00:40:23.670Z,21.3100
2022-12-23T00:41:26.061Z,21.3400
2022-12-23T00:42:26.316Z,21.3600
2022-12-23T00:43:28.658Z,21.3400
2022-12-23T00:44:31.002Z,21.3300
2022-12-23T00:45:31.233Z,21.3100
2022-12-23T00:46:33.636Z,21.2900
2022-12-23T00:47:36.089Z,21.2900
2022-12-23T00:48:36.271Z,21.3000
2022-12-23T00:49:38.701Z,21.2900
2022-12-23T00:50:41.078Z,21.2700
2022-12-23T00:51:43.528Z,21.2700
2022-12-23T00:52:45.931Z,21.2700
2022-12-23T00:53:46.168Z,21.2900
2022-12-23T00:54:48.636Z,21.2800
2022-12-23T00:55:51.022Z,21.2700
2022-12-23T00:56:53.435Z,21.2700
2022-12-23T00:57:55.825Z,21.2600
2022-12-23T00:58:56.078Z,21.2600
2022-12-23T00:59:58.551Z,21.2600
2022-12-23T01:01:01.037Z,21.2700
2022-12-23T01:02:03.602Z,21.2700
2022-12-23T01:03:05.994Z,21.2600
2022-12-23T01:04:06.126Z,21.2700
2022-12-23T01:05:08.612Z,21.2700
2022-12-23T01:06:08.845Z,21.2700
2022-12-23T01:07:11.307Z,21.2700
2022-12-23T01:08:13.676Z,21.2700
2022-12-23T01:09:13.936Z,21.2600
2022-12-23T01:10:16.388Z,21.2500
2022-12-23T01:11:18.757Z,21.2600
2022-12-23T01:12:19.009Z,21.2700
2022-12-23T01:13:21.438Z,21.2700
2022-12-23T01:14:23.793Z,21.2700
2022-12-23T01:15:26.280Z,21.2700
2022-12-23T01:16:28.588Z,21.2700
2022-12-23T01:17:28.829Z,21.2700
2022-12-23T01:18:31.236Z,21.2900
2022-12-23T01:19:33.663Z,21.2700
2022-12-23T01:20:33.953Z,21.2700
2022-12-23T01:21:36.314Z,21.2600
2022-12-23T01:22:38.709Z,21.2600
2022-12-23T01:23:41.092Z,21.2600
2022-12-23T01:24:43.481Z,21.2600
2022-12-23T01:25:43.795Z,21.2500
2022-12-23T01:26:46.168Z,21.2500
2022-12-23T01:27:48.590Z,21.2500
2022-12-23T01:28:50.966Z,21.2500
2022-12-23T01:29:53.406Z,21.2500
2022-12-23T01:30:53.703Z,21.2600
2022-12-23T01:31:56.243Z,21.2600
2022-12-23T01:32:58.523Z,21.2600
2022-12-23T01:34:00.953Z,21.2400
2022-12-23T01:35:03.373Z,21.2400
2022-12-23T01:36:03.692Z,21.2300
2022-12-23T01:37:06.117Z,21.2400
2022-12-23T01:38:08.543Z,21.2400
2022-12-23T01:39:10.916Z,21.2400
2022-12-23T01:40:13.336Z,21.2400
2022-12-23T01:41:13.638Z,21.2400
2022-12-23T01:42:16.023Z,21.2300
2022-12-23T01:43:18.417Z,21.2400
2022-12-23T01:44:20.844Z,21.2400
2022-12-23T01:45:23.269Z,21.2400
2022-12-23T01:46:23.623Z,21.2400
2022-12-23T01:47:25.870Z,21.2300
2022-12-23T01:48:28.294Z,21.2400
2022-12-23T01:49:28.562Z,21.2500
2022-12-23T01:50:30.955Z,21.2500
2022-12-23T01:51:33.337Z,21.2400
2022-12-23T01:52:35.725Z,21.2300
2022-12-23T01:53:38.188Z,21.2200
2022-12-23T01:54:38.412Z,21.2100
2022-12-23T01:55:40.799Z,21.2300
2022-12-23T01:56:43.293Z,21.2400
2022-12-23T01:57:43.361Z,21.2700
2022-12-23T01:58:45.732Z,21.2600
2022-12-23T01:59:48.087Z,21.2700
2022-12-23T02:00:48.321Z,21.2700
2022-12-23T02:01:50.853Z,21.2700
2022-12-23T02:02:53.218Z,21.2600
2022-12-23T02:03:53.257Z,21.2600
2022-12-23T02:04:55.630Z,21.2500
2022-12-23T02:05:57.988Z,21.2300
2022-12-23T02:06:58.264Z,21.2100
2022-12-23T02:08:00.576Z,21.2200
2022-12-23T02:09:02.974Z,21.2100
2022-12-23T02:10:03.158Z,21.2100
2022-12-23T02:11:05.549Z,21.2300
2022-12-23T02:12:07.918Z,21.2300
2022-12-23T02:13:08.108Z,21.2100
2022-12-23T02:14:10.482Z,21.2100
2022-12-23T02:15:12.858Z,21.2200
2022-12-23T02:16:13.079Z,21.2300
2022-12-23T02:17:15.567Z,21.2300
2022-12-23T02:18:17.812Z,21.2200
2022-12-23T02:19:18.034Z,21.2200
2022-12-23T02:20:20.370Z,21.2300
2022-12-23T02:21:22.744Z,21.2300
2022-12-23T02:22:23.029Z,21.2300
2022-12-23T02:23:25.349Z,21.2300
2022-12-23T02:24:27.718Z,21.2300
2022-12-23T02:25:27.891Z,21.2200
2022-12-23T02:26:30.232Z,21.2200
2022-12-23T02:27:32.617Z,21.2300
2022-12-23T02:28:32.832Z,21.2100
2022-12-23T02:29:35.237Z,21.2100
2022-12-23T02:30:37.678Z,21.2100
2022-12-23T02:31:37.875Z,21.2100
2022-12-23T02:32:40.288Z,21.2200
2022-12-23T02:33:42.676Z,21.2100
2022-12-23T02:34:42.862Z,21.2400
2022-12-23T02:35:45.236Z,21.2400
2022-12-23T02:36:47.603Z,21.2300
2022-12-23T02:37:47.960Z,21.2300
2022-12-23T02:38:50.179Z,21.2300
2022-12-23T02:39:52.693Z,21.2300
2022-12-23T02:40:52.763Z,21.2100
2022-12-23T02:41:55.110Z,21.2200
2022-12-23T02:42:57.616Z,21.2200
2022-12-23T02:43:57.689Z,21.2100
2022-12-23T02:45:00.077Z,21.1900
2022-12-23T02:46:02.466Z,21.1900
2022-12-23T02:47:02.651Z,21.1900
2022-12-23T02:48:05.056Z,21.1900
2022-12-23T02:49:07.388Z,21.1800
2022-12-23T02:50:07.583Z,21.1800
2022-12-23T02:51:09.922Z,21.2000
2022-12-23T02:52:12.240Z,21.2000
2022-12-23T02:53:14.644Z,21.2100
2022-12-23T02:54:16.978Z,21.2000
2022-12-23T02:55:19.370Z,21.2100
2022-12-23T02:56:19.551Z,21.2000
2022-12-23T02:57:21.902Z,21.2100
2022-12-23T02:58:24.332Z,21.2000
2022-12-23T02:59:24.464Z,21.1900
2022-12-23T03:00:26.883Z,21.1800
2022-12-23T03:01:29.431Z,21.2000
2022-12-23T03:02:29.726Z,21.2100
2022-12-23T03:03:32.106Z,21.2000
2022-12-23T03:04:34.379Z,21.2100
2022-12-23T03:05:36.769Z,21.2000
2022-12-23T03:06:39.150Z,21.2000
2022-12-23T03:07:39.364Z,21.2000
2022-12-23T03:08:41.791Z,21.2000
2022-12-23T03:09:44.100Z,21.2000
2022-12-23T03:10:44.341Z,21.1800
2022-12-23T03:11:46.729Z,21.2000
2022-12-23T03:12:49.132Z,21.2100
2022-12-23T03:13:49.428Z,21.2100
2022-12-23T03:14:51.754Z,21.2300
2022-12-23T03:15:54.202Z,21.2100
2022-12-23T03:16:56.584Z,21.2000
2022-12-23T03:17:59.017Z,21.2100
2022-12-23T03:18:59.309Z,21.2100
2022-12-23T03:20:01.647Z,21.2000
2022-12-23T03:21:04.010Z,21.2100
2022-12-23T03:22:04.269Z,21.2100
2022-12-23T03:23:06.687Z,21.2000
2022-12-23T03:24:09.115Z,21.2100
2022-12-23T03:25:11.509Z,21.2100
2022-12-23T03:26:13.957Z,21.1800
2022-12-23T03:27:14.160Z,21.1900
2022-12-23T03:28:16.579Z,21.1900
2022-12-23T03:29:19.034Z,21.1900
2022-12-23T03:30:19.245Z,21.1900
2022-12-23T03:31:21.767Z,21.2100
2022-12-23T03:32:24.038Z,21.2100
2022-12-23T03:33:26.440Z,21.2200
2022-12-23T03:34:28.982Z,21.2100
2022-12-23T03:35:29.108Z,21.2000
2022-12-23T03:36:31.537Z,21.2000
2022-12-23T03:37:33.947Z,21.2000
2022-12-23T03:38:36.368Z,21.1900
2022-12-23T03:39:38.794Z,21.2000
2022-12-23T03:40:39.041Z,21.2000
2022-12-23T03:41:41.496Z,21.2100
2022-12-23T03:42:43.840Z,21.2100
2022-12-23T03:43:50.756Z,21.2100
2022-12-23T03:45:11.063Z,21.2100
2022-12-23T03:45:48.888Z,21.2000
2022-12-23T03:46:51.325Z,21.2000
2022-12-23T03:47:53.633Z,21.2000
2022-12-23T03:48:53.851Z,21.2000
2022-12-23T03:49:56.365Z,21.2000
2022-12-23T03:50:58.622Z,21.2000
2022-12-23T03:51:58.829Z,21.2100
2022-12-23T03:53:01.202Z,21.2100
2022-12-23T03:54:03.532Z,21.2100
2022-12-23T03:55:03.858Z,21.2300
2022-12-23T03:56:06.105Z,21.2300
2022-12-23T03:57:08.429Z,21.2400
2022-12-23T03:58:10.758Z,21.2300
2022-12-23T03:59:13.161Z,21.2400
2022-12-23T04:00:15.534Z,21.2300
2022-12-23T04:01:17.977Z,21.2100
2022-12-23T04:02:18.192Z,21.2100
2022-12-23T04:03:20.399Z,21.2000
2022-12-23T04:04:20.696Z,21.2000
2022-12-23T04:05:23.116Z,21.2000
2022-12-23T04:06:25.355Z,21.2000
2022-12-23T04:07:25.577Z,21.2000
2022-12-23T04:08:27.939Z,21.2100
2022-12-23T04:09:30.309Z,21.2200
2022-12-23T04:10:30.534Z,21.2500
2022-12-23T04:11:32.837Z,21.2700
2022-12-23T04:12:35.197Z,21.2600
2022-12-23T04:13:37.541Z,21.2400
2022-12-23T04:14:39.924Z,21.2300
2022-12-23T04:15:42.492Z,21.2200
2022-12-23T04:16:42.541Z,21.2100
2022-12-23T04:17:44.936Z,21.2300
2022-12-23T04:18:47.302Z,21.2300
2022-12-23T04:19:47.583Z,21.2200
2022-12-23T04:20:49.944Z,21.2300
2022-12-23T04:21:52.311Z,21.2200
2022-12-23T04:22:52.542Z,21.2000
2022-12-23T04:23:54.953Z,21.2000
2022-12-23T04:24:57.419Z,21.2000
2022-12-23T04:25:59.903Z,21.2100
2022-12-23T04:27:02.204Z,21.2100
2022-12-23T04:28:02.478Z,21.1900
2022-12-23T04:29:04.839Z,21.1900
2022-12-23T04:30:07.266Z,21.2000
2022-12-23T04:31:09.747Z,21.2000
2022-12-23T04:32:12.103Z,21.1900
2022-12-23T04:33:12.362Z,21.1800
2022-12-23T04:34:14.768Z,21.1900
2022-12-23T04:35:17.174Z,21.1800
2022-12-23T04:36:19.631Z,21.1900
2022-12-23T04:37:22.027Z,21.1800
2022-12-23T04:38:22.298Z,21.1900
2022-12-23T04:39:24.683Z,21.2000
2022-12-23T04:40:27.129Z,21.2000
2022-12-23T04:41:29.561Z,21.2100
2022-12-23T04:42:31.926Z,21.2100
2022-12-23T04:43:32.176Z,21.2100
2022-12-23T04:44:34.580Z,21.2100
2022-12-23T04:45:36.978Z,21.2000
2022-12-23T04:46:37.472Z,21.2100
2022-12-23T04:47:39.684Z,21.2200
2022-12-23T04:48:42.072Z,21.2000
2022-12-23T04:49:44.448Z,21.2000
2022-12-23T04:50:46.844Z,21.1900
2022-12-23T04:51:47.088Z,21.2100
2022-12-23T04:52:49.485Z,21.2000
2022-12-23T04:53:51.850Z,21.2400
2022-12-23T04:54:52.064Z,21.2500
2022-12-23T04:55:54.390Z,21.2600
2022-12-23T04:56:56.898Z,21.2400
2022-12-23T04:57:57.032Z,21.2300
2022-12-23T04:58:59.459Z,21.2400
2022-12-23T05:00:01.950Z,21.2300
2022-12-23T05:01:04.411Z,21.2700
2022-12-23T05:02:07.036Z,21.2500
2022-12-23T05:03:07.053Z,21.2400
2022-12-23T05:04:09.344Z,21.2200
2022-12-23T05:05:11.761Z,21.2200
2022-12-23T05:06:12.016Z,21.2200
2022-12-23T05:07:14.415Z,21.2200
2022-12-23T05:08:16.793Z,21.2200
2022-12-23T05:09:19.191Z,21.2200
2022-12-23T05:10:21.549Z,21.2100
2022-12-23T05:11:21.767Z,21.2100
2022-12-23T05:12:24.189Z,21.2100
2022-12-23T05:13:26.577Z,21.2100
2022-12-23T05:14:26.836Z,21.2100
2022-12-23T05:15:29.230Z,21.2200
2022-12-23T05:16:31.782Z,21.2200
2022-12-23T05:17:34.058Z,21.2100
2022-12-23T05:18:36.395Z,21.2000
2022-12-23T05:19:36.628Z,21.2000
2022-12-23T05:20:38.998Z,21.2000
2022-12-23T05:21:41.411Z,21.2000
2022-12-23T05:22:41.695Z,21.2000
2022-12-23T05:23:44.088Z,21.1900
2022-12-23T05:24:46.449Z,21.2000
2022-12-23T05:25:46.719Z,21.2000
2022-12-23T05:26:52.827Z,21.2100
2022-12-23T05:27:51.514Z,21.2000
2022-12-23T05:28:53.830Z,21.2100
2022-12-23T05:29:56.217Z,21.2100
2022-12-23T05:30:58.540Z,21.2200
2022-12-23T05:32:00.944Z,21.2100
2022-12-23T05:33:03.286Z,21.2100
2022-12-23T05:34:06.689Z,21.2100
2022-12-23T05:35:05.714Z,21.1900
2022-12-23T05:36:08.092Z,21.2100
2022-12-23T05:37:10.444Z,21.2000
2022-12-23T05:38:12.945Z,21.2100
2022-12-23T05:39:15.208Z,21.2100
2022-12-23T05:40:21.536Z,21.2200
2022-12-23T05:41:17.743Z,21.2100
2022-12-23T05:42:20.084Z,21.2200
2022-12-23T05:43:22.423Z,21.2200
2022-12-23T05:44:24.729Z,21.2300
2022-12-23T05:45:27.133Z,21.2300
2022-12-23T05:46:27.579Z,21.2400
2022-12-23T05:47:29.628Z,21.2600
2022-12-23T05:48:32.115Z,21.2800
2022-12-23T05:49:34.287Z,21.3300
2022-12-23T05:50:36.659Z,21.3700
2022-12-23T05:51:39.047Z,21.3800
2022-12-23T05:52:39.315Z,21.4200
2022-12-23T05:53:41.719Z,21.4400
2022-12-23T05:54:44.068Z,21.4400
2022-12-23T05:55:44.303Z,21.4400
2022-12-23T05:56:46.676Z,21.4500
2022-12-23T05:57:49.044Z,21.4600
2022-12-23T05:58:49.243Z,21.5000
2022-12-23T05:59:51.571Z,21.5100
2022-12-23T06:00:54.049Z,21.5500
2022-12-23T06:01:54.326Z,21.5600
2022-12-23T06:02:56.659Z,21.5400
2022-12-23T06:03:59.082Z,21.5300
2022-12-23T06:04:59.119Z,21.5200
2022-12-23T06:06:01.496Z,21.5400
2022-12-23T06:07:03.861Z,21.5400
2022-12-23T06:08:04.069Z,21.5600
2022-12-23T06:09:06.427Z,21.5400
2022-12-23T06:10:08.696Z,21.5700
2022-12-23T06:11:11.056Z,21.5700
2022-12-23T06:12:13.371Z,21.5800
2022-12-23T06:13:15.681Z,21.5800
2022-12-23T06:14:18.019Z,21.5900
2022-12-23T06:15:20.344Z,21.5800
2022-12-23T06:16:22.727Z,21.6300
2022-12-23T06:17:24.960Z,21.5900
2022-12-23T06:18:27.261Z,21.5900
2022-12-23T06:19:29.626Z,21.5900
2022-12-23T06:20:31.893Z,21.6000
2022-12-23T06:21:34.211Z,21.6100
2022-12-23T06:22:36.550Z,21.6100
2022-12-23T06:23:38.877Z,21.6000
2022-12-23T06:24:41.311Z,21.6100
2022-12-23T06:25:43.519Z,21.5700
2022-12-23T06:26:45.811Z,21.6000
2022-12-23T06:27:48.135Z,21.5900
2022-12-23T06:28:50.440Z,21.6100
2022-12-23T06:29:52.761Z,21.6000
2022-12-23T06:30:55.034Z,21.5800
2022-12-23T06:31:57.507Z,21.5900
2022-12-23T06:32:59.655Z,21.6000
2022-12-23T06:34:01.960Z,21.5900
2022-12-23T06:35:04.232Z,21.6100
2022-12-23T06:36:06.454Z,21.5900
2022-12-23T06:37:06.616Z,21.6200
2022-12-23T06:38:12.270Z,21.6400
2022-12-23T06:39:11.217Z,21.6200
2022-12-23T06:40:13.571Z,21.5900
2022-12-23T06:41:13.660Z,21.5900
2022-12-23T06:42:15.922Z,21.5700
2022-12-23T06:43:18.193Z,21.5700
2022-12-23T06:44:20.522Z,21.5900
2022-12-23T06:45:22.879Z,21.6000
2022-12-23T06:46:25.281Z,21.6000
2022-12-23T06:47:27.540Z,21.5800
2022-12-23T06:48:29.784Z,21.6100
2022-12-23T06:49:32.029Z,21.5900
2022-12-23T06:51:32.478Z,21.7300
2022-12-23T06:52:34.679Z,21.8000
2022-12-23T06:53:37.000Z,21.8300
2022-12-23T06:54:39.340Z,21.8400
2022-12-23T06:55:41.645Z,21.8100
2022-12-23T06:56:41.843Z,21.8100
2022-12-23T06:57:44.151Z,21.8500
2022-12-23T06:58:46.432Z,21.8500
2022-12-23T06:59:48.771Z,21.8000
2022-12-23T07:00:51.168Z,21.7800
2022-12-23T07:01:51.565Z,21.8000
2022-12-23T07:02:53.852Z,21.8300
2022-12-23T07:03:56.023Z,21.8300
2022-12-23T07:04:58.402Z,21.8400
2022-12-23T07:05:58.610Z,21.8400
2022-12-23T07:07:01.017Z,21.8200
2022-12-23T07:08:03.347Z,21.8200
2022-12-23T07:09:05.714Z,21.8400
2022-12-23T07:10:08.076Z,21.8500
2022-12-23T07:11:08.265Z,21.8700
2022-12-23T07:12:10.704Z,21.8800
2022-12-23T07:13:12.903Z,21.8900
2022-12-23T07:14:15.165Z,21.9100
2022-12-23T07:15:17.444Z,21.9000
2022-12-23T07:16:19.765Z,21.9100
2022-12-23T07:17:22.117Z,21.8500
2022-12-23T07:18:22.160Z,21.8500
2022-12-23T07:19:22.319Z,21.8000
2022-12-23T07:20:24.636Z,21.7800
2022-12-23T07:21:29.857Z,21.7700
2022-12-23T07:22:29.268Z,21.7200
2022-12-23T07:23:31.493Z,21.7000
2022-12-23T07:24:33.760Z,21.6700
2022-12-23T07:25:33.916Z,21.6500
2022-12-23T07:26:36.234Z,21.6800
2022-12-23T07:27:38.622Z,21.7000
2022-12-23T07:28:40.902Z,21.6700
2022-12-23T07:29:43.259Z,21.6000
2022-12-23T07:30:45.487Z,21.5800
2022-12-23T07:31:47.898Z,21.5100
2022-12-23T07:32:50.174Z,21.4400
2022-12-23T07:33:52.455Z,21.4400
2022-12-23T07:34:54.736Z,21.3500
2022-12-23T07:35:54.928Z,21.3200
2022-12-23T07:36:57.222Z,21.3000
2022-12-23T07:37:59.665Z,21.3400
2022-12-23T07:39:01.817Z,21.3400
2022-12-23T07:40:08.640Z,21.3600
2022-12-23T07:41:06.435Z,21.3700
2022-12-23T07:42:42.726Z,21.3800
2022-12-23T07:43:08.970Z,21.3600
2022-12-23T07:44:11.208Z,21.3900
2022-12-23T07:45:13.516Z,21.4000
2022-12-23T07:46:15.901Z,21.4000
2022-12-23T07:47:18.181Z,21.4200
2022-12-23T07:48:18.499Z,21.4300
2022-12-23T07:49:20.721Z,21.4400
2022-12-23T07:50:23.045Z,21.4400
2022-12-23T07:51:25.351Z,21.4500
2022-12-23T07:52:27.691Z,21.4400
2022-12-23T07:53:30.063Z,21.4400
2022-12-23T07:54:32.330Z,21.4400
2022-12-23T07:55:34.649Z,21.4600
2022-12-23T07:56:36.998Z,21.4600
2022-12-23T07:57:39.322Z,21.4600
2022-12-23T07:58:41.716Z,21.4700
2022-12-23T07:59:41.830Z,21.4600
2022-12-23T08:00:44.163Z,21.4500
2022-12-23T08:01:46.600Z,21.4400
2022-12-23T08:02:48.978Z,21.4400
2022-12-23T08:03:51.258Z,21.4600
2022-12-23T08:04:53.587Z,21.4600
2022-12-23T08:05:53.633Z,21.4800
2022-12-23T08:06:55.962Z,21.5400
2022-12-23T08:07:58.290Z,21.5600
2022-12-23T08:09:00.675Z,21.5600
2022-12-23T08:10:00.883Z,21.5600
2022-12-23T08:11:03.317Z,21.5700
2022-12-23T08:12:05.672Z,21.5600
2022-12-23T08:13:08.090Z,21.5700
2022-12-23T08:14:08.344Z,21.5700
2022-12-23T08:15:10.718Z,21.5600
2022-12-23T08:16:13.198Z,21.5600
2022-12-23T08:17:15.570Z,21.5500
2022-12-23T08:18:15.715Z,21.5900
2022-12-23T08:19:18.216Z,21.6100
2022-12-23T08:20:39.388Z,21.5900
2022-12-23T08:21:40.146Z,21.5900
2022-12-23T08:22:42.281Z,21.6100
2022-12-23T08:23:44.569Z,21.6400
2022-12-23T08:24:46.908Z,21.6300
2022-12-23T08:25:49.170Z,21.6200
2022-12-23T08:26:51.513Z,21.6100
2022-12-23T08:27:53.832Z,21.5900
2022-12-23T08:28:54.004Z,21.5700
2022-12-23T08:29:56.352Z,21.5800
2022-12-23T08:30:58.719Z,21.5900
2022-12-23T08:32:01.018Z,21.6000
2022-12-23T08:33:03.381Z,21.6000
2022-12-23T08:34:03.587Z,21.5900
2022-12-23T08:35:05.988Z,21.5800
2022-12-23T08:36:08.312Z,21.5800
2022-12-23T08:37:10.629Z,21.5900
2022-12-23T08:38:12.951Z,21.5800
2022-12-23T08:39:15.223Z,21.5800
2022-12-23T08:40:15.406Z,21.5900
2022-12-23T08:41:17.667Z,21.5800
2022-12-23T08:42:19.985Z,21.5900
2022-12-23T08:43:22.300Z,21.6100
2022-12-23T08:44:24.635Z,21.6300
2022-12-23T08:45:27.031Z,21.6300
2022-12-23T08:46:27.214Z,21.6100
2022-12-23T08:47:29.538Z,21.6000
2022-12-23T08:48:31.878Z,21.5900
2022-12-23T08:49:34.212Z,21.5900
2022-12-23T08:50:36.587Z,21.6000
2022-12-23T08:51:36.783Z,21.6000
2022-12-23T08:52:39.110Z,21.6000
2022-12-23T08:53:41.433Z,21.6000
2022-12-23T08:54:43.791Z,21.6100
2022-12-23T08:55:46.219Z,21.6000
2022-12-23T08:56:48.509Z,21.6200
2022-12-23T08:57:50.843Z,21.6100
2022-12-23T08:58:53.219Z,21.6200
2022-12-23T08:59:55.599Z,21.6100
2022-12-23T09:00:55.911Z,21.6000
2022-12-23T09:01:58.352Z,21.6000
2022-12-23T09:03:00.722Z,21.6200
2022-12-23T09:04:03.110Z,21.6200
2022-12-23T09:05:05.254Z,21.6300
2022-12-23T09:06:05.538Z,21.6300
2022-12-23T09:07:07.893Z,21.6300
2022-12-23T09:08:10.249Z,21.6100
2022-12-23T09:09:12.604Z,21.5900
2022-12-23T09:10:12.836Z,21.5700
2022-12-23T09:11:15.266Z,21.5200
2022-12-23T09:12:17.605Z,21.4800
2022-12-23T09:13:27.843Z,21.4500
2022-12-23T09:14:22.319Z,21.4000
2022-12-23T09:15:22.530Z,21.3900
2022-12-23T09:16:25.073Z,21.3600
2022-12-23T09:17:27.226Z,21.3600
2022-12-23T09:18:29.507Z,21.3500
2022-12-23T09:19:31.838Z,21.4000
2022-12-23T09:20:33.051Z,21.3700
2022-12-23T09:21:35.411Z,21.3300
2022-12-23T09:22:36.730Z,21.3600
2022-12-23T09:23:40.057Z,21.4100
2022-12-23T09:24:41.360Z,21.4500
2022-12-23T09:25:43.684Z,21.5000
2022-12-23T09:26:46.092Z,21.4800
2022-12-23T09:27:46.207Z,21.5000
2022-12-23T09:28:48.523Z,21.5000
2022-12-23T09:29:50.806Z,21.5200
2022-12-23T09:30:53.156Z,21.5200
2022-12-23T09:31:55.629Z,21.5300
2022-12-23T09:32:57.852Z,21.5300
2022-12-23T09:33:58.065Z,21.5500
2022-12-23T09:35:00.425Z,21.5500
2022-12-23T09:36:02.707Z,21.5600
2022-12-23T09:37:05.049Z,21.5600
2022-12-23T09:38:07.347Z,21.5700
2022-12-23T09:39:09.650Z,21.5900
2022-12-23T09:40:09.858Z,21.6000
2022-12-23T09:41:12.225Z,21.6000
2022-12-23T09:42:14.696Z,21.6100
2022-12-23T09:43:16.905Z,21.6100
2022-12-23T09:44:19.267Z,21.6200
2022-12-23T09:45:21.592Z,21.6300
2022-12-23T09:46:24.050Z,21.6500
2022-12-23T09:47:26.417Z,21.6500
2022-12-23T09:48:28.642Z,21.6400
2022-12-23T09:49:28.853Z,21.6500
2022-12-23T09:50:31.182Z,21.6600
2022-12-23T09:51:33.508Z,21.6500
2022-12-23T09:52:35.846Z,21.6500
2022-12-23T09:54:38.440Z,21.6100
2022-12-23T09:55:39.513Z,21.6300
2022-12-23T09:56:40.787Z,21.6500
2022-12-23T09:57:43.150Z,21.6700
2022-12-23T09:58:43.301Z,21.6900
2022-12-23T09:59:45.659Z,21.6900
2022-12-23T10:00:47.985Z,21.6900
2022-12-23T10:01:50.425Z,21.6900
2022-12-23T10:02:53.002Z,21.6800
2022-12-23T10:03:53.040Z,21.6900
2022-12-23T10:04:55.200Z,21.7000
2022-12-23T10:05:57.515Z,21.7100
2022-12-23T10:07:03.080Z,21.7100
2022-12-23T10:08:02.276Z,21.7000
2022-12-23T10:09:02.482Z,21.7200
2022-12-23T10:10:04.903Z,21.7200
2022-12-23T10:11:07.197Z,21.7300
2022-12-23T10:12:09.482Z,21.7200
2022-12-23T10:13:11.939Z,21.7300
2022-12-23T10:14:11.935Z,21.7600
2022-12-23T10:15:14.252Z,21.7600
2022-12-23T10:16:16.646Z,21.7400
2022-12-23T10:17:18.880Z,21.7400
2022-12-23T10:18:21.221Z,21.7300
2022-12-23T10:19:23.496Z,21.7400
2022-12-23T10:20:25.789Z,21.7500
2022-12-23T10:21:25.951Z,21.7500
2022-12-23T10:22:28.264Z,21.7600
2022-12-23T10:23:30.768Z,21.7600
2022-12-23T10:24:32.884Z,21.7300
2022-12-23T10:25:35.230Z,21.7200
2022-12-23T10:26:37.517Z,21.7100
2022-12-23T10:27:37.704Z,21.7000
2022-12-23T10:28:40.060Z,21.7000
2022-12-23T10:29:42.312Z,21.7100
2022-12-23T10:31:11.107Z,21.7300
2022-12-23T10:31:47.026Z,21.7300
2022-12-23T10:32:49.342Z,21.7300
2022-12-23T10:33:51.719Z,21.7200
2022-12-23T10:34:53.924Z,21.7300
2022-12-23T10:35:54.191Z,21.7300
2022-12-23T10:36:56.577Z,21.7500
2022-12-23T10:37:58.905Z,21.7500
2022-12-23T10:39:01.292Z,21.7400
2022-12-23T10:40:03.639Z,21.7400
2022-12-23T10:41:08.773Z,21.7300
2022-12-23T10:42:06.186Z,21.7200
2022-12-23T10:43:08.555Z,21.7300
2022-12-23T10:44:10.884Z,21.7300
2022-12-23T10:45:13.112Z,21.7200
2022-12-23T10:46:15.427Z,21.7200
2022-12-23T10:47:15.460Z,21.7300
2022-12-23T10:48:17.703Z,21.7500
2022-12-23T10:49:19.953Z,21.7500
2022-12-23T10:50:22.132Z,21.7500
2022-12-23T10:51:24.308Z,21.7400
2022-12-23T10:52:26.525Z,21.7300
2022-12-23T10:53:28.749Z,21.7300
2022-12-23T10:54:30.965Z,21.7300
2022-12-23T10:55:34.233Z,21.7400
2022-12-23T10:56:35.461Z,21.7400
2022-12-23T10:57:37.772Z,21.7500
2022-12-23T10:58:37.955Z,21.7500
2022-12-23T10:59:40.347Z,21.7400
2022-12-23T11:00:42.714Z,21.7400
2022-12-23T11:01:45.340Z,21.7500
2022-12-23T11:02:47.515Z,21.7500
2022-12-23T11:03:47.667Z,21.7600
2022-12-23T11:04:50.025Z,21.7600
2022-12-23T11:05:52.338Z,21.7600
2022-12-23T11:07:18.242Z,21.7600
2022-12-23T11:07:54.830Z,21.7500
2022-12-23T11:08:57.164Z,21.7600
2022-12-23T11:09:59.545Z,21.7700
2022-12-23T11:11:01.907Z,21.7700
2022-12-23T11:12:04.266Z,21.7600
2022-12-23T11:13:06.594Z,21.7800
2022-12-23T11:14:08.910Z,21.7800
2022-12-23T11:15:11.240Z,21.7800
2022-12-23T11:16:13.576Z,21.7700
2022-12-23T11:17:13.728Z,21.7600
2022-12-23T11:18:16.074Z,21.7600
2022-12-23T11:19:18.513Z,21.7700
2022-12-23T11:20:21.060Z,21.7900
2022-12-23T11:21:21.207Z,21.8000
2022-12-23T11:22:23.625Z,21.8000
2022-12-23T11:23:26.051Z,21.8000
2022-12-23T11:24:28.463Z,21.8000
2022-12-23T11:25:28.789Z,21.7900
2022-12-23T11:26:31.139Z,21.7800
2022-12-23T11:27:33.566Z,21.7900
2022-12-23T11:28:33.805Z,21.7800
2022-12-23T11:29:36.213Z,21.7900
2022-12-23T11:30:38.651Z,21.8000
2022-12-23T11:31:41.075Z,21.8200
2022-12-23T11:32:43.397Z,21.8800
2022-12-23T11:33:43.621Z,21.8500
2022-12-23T11:34:45.971Z,21.8400
2022-12-23T11:35:48.599Z,21.8400
2022-12-23T11:36:54.711Z,21.8600
2022-12-23T11:37:51.000Z,21.8500
2022-12-23T11:38:53.425Z,21.8400
2022-12-23T11:39:55.819Z,21.8600
2022-12-23T11:40:58.278Z,21.8600
2022-12-23T11:41:58.508Z,21.8700
2022-12-23T11:43:00.924Z,21.8500
2022-12-23T11:44:03.273Z,21.8800
2022-12-23T11:45:05.671Z,21.8700
2022-12-23T11:46:06.083Z,21.8800
2022-12-23T11:47:08.305Z,21.8800
2022-12-23T11:48:10.675Z,21.8600
2022-12-23T11:49:13.026Z,21.8700
2022-12-23T11:50:13.288Z,21.8800
2022-12-23T11:51:15.727Z,21.8700
2022-12-23T11:52:18.014Z,21.8600
2022-12-23T11:53:20.417Z,21.8700
2022-12-23T11:54:20.674Z,21.8700
2022-12-23T11:55:23.062Z,21.8900
2022-12-23T11:56:25.537Z,21.8800
2022-12-23T11:57:27.872Z,21.8800
2022-12-23T11:58:28.145Z,21.9100
2022-12-23T11:59:30.510Z,21.9200
2022-12-23T12:00:32.924Z,21.9500
2022-12-23T12:01:35.442Z,21.9500
2022-12-23T12:02:35.637Z,21.9700
2022-12-23T12:03:37.898Z,21.9700
2022-12-23T12:04:40.251Z,21.9900
2022-12-23T12:05:42.621Z,21.9600
2022-12-23T12:06:47.299Z,21.9500
2022-12-23T12:07:45.091Z,21.9100
2022-12-23T12:08:47.429Z,21.9000
2022-12-23T12:09:49.728Z,21.9000
2022-12-23T12:10:52.077Z,21.9400
2022-12-23T12:11:54.515Z,22.0400
2022-12-23T12:12:56.745Z,22.0300
2022-12-23T12:13:56.988Z,21.9900
2022-12-23T12:15:00.415Z,21.9600
2022-12-23T12:16:00.609Z,21.8500
2022-12-23T12:17:03.142Z,21.7600
2022-12-23T12:18:05.331Z,21.7200
2022-12-23T12:19:05.525Z,21.6900
2022-12-23T12:20:07.834Z,21.6900
2022-12-23T12:21:10.219Z,21.6600
2022-12-23T12:22:10.551Z,21.6500
2022-12-23T12:23:12.777Z,21.6300
2022-12-23T12:24:18.834Z,21.6100
2022-12-23T12:25:17.427Z,21.6000
2022-12-23T12:26:19.718Z,21.6200
2022-12-23T12:27:22.052Z,21.6400
2022-12-23T12:28:24.372Z,21.6600
2022-12-23T12:29:26.759Z,21.6500
2022-12-23T12:30:29.125Z,21.6400